createdAt,value
2019-01-28T00:03:16.182Z,99386.88
2019-01-28T00:07:23.767Z,99385.78
2019-01-28T00:11:31.643Z,99387.48
2019-01-28T00:15:39.782Z,99389.50
2019-01-28T00:19:47.461Z,99378.37
2019-01-28T00:23:55.829Z,99370.81
2019-01-28T00:28:03.750Z,99372.25
2019-01-28T00:32:12.450Z,99377.19
2019-01-28T00:36:20.490Z,99374.19
2019-01-28T00:40:28.393Z,99371.55
2019-01-28T00:44:36.764Z,99373.69
2019-01-28T00:48:44.768Z,99370.81
2019-01-28T00:52:52.770Z,99349.27
2019-01-28T00:57:00.376Z,99344.36
2019-01-28T01:01:08.162Z,99332.52
2019-01-28T01:05:17.275Z,99319.81
2019-01-28T01:09:25.927Z,99315.13
2019-01-28T01:13:33.760Z,99304.48
2019-01-28T01:17:41.865Z,99293.09
2019-01-28T01:21:51.076Z,99298.14
2019-01-28T01:25:59.462Z,99307.48
2019-01-28T01:30:09.307Z,99300.66
2019-01-28T01:34:17.194Z,99295.13
2019-01-28T01:38:24.939Z,99276.68
2019-01-28T01:42:32.924Z,99271.64
2019-01-28T01:46:40.939Z,99257.03
2019-01-28T01:50:49.031Z,99247.81
2019-01-28T01:54:57.040Z,99241.69
2019-01-28T01:59:05.056Z,99250.53
2019-01-28T02:03:13.537Z,99253.39
2019-01-28T02:07:21.472Z,99251.95
2019-01-28T02:11:29.177Z,99260.59
2019-01-28T02:15:37.087Z,99268.23
2019-01-28T02:19:45.532Z,99268.34
2019-01-28T02:23:53.918Z,99263.19
2019-01-28T02:28:01.684Z,99266.64
2019-01-28T02:32:09.701Z,99265.20
2019-01-28T02:36:17.743Z,99265.03
2019-01-28T02:40:25.754Z,99271.16
2019-01-28T02:44:34.767Z,99263.83
2019-01-28T02:48:42.484Z,99277.25
2019-01-28T02:52:51.322Z,99278.91
2019-01-28T02:56:59.035Z,99285.39
2019-01-28T03:01:07.033Z,99281.61
2019-01-28T03:05:16.205Z,99284.64
2019-01-28T03:09:24.015Z,99276.16
2019-01-28T03:13:32.357Z,99273.75
2019-01-28T03:17:40.077Z,99271.97
2019-01-28T03:21:47.982Z,99261.42
2019-01-28T03:25:56.002Z,99258.66
2019-01-28T03:30:04.327Z,99254.20
2019-01-28T03:34:12.286Z,99247.37
2019-01-28T03:38:20.137Z,99250.83
2019-01-28T03:42:28.050Z,99241.59
2019-01-28T03:46:36.054Z,99242.67
2019-01-28T03:50:43.957Z,99245.07
2019-01-28T03:54:51.761Z,99243.25
2019-01-28T03:58:59.767Z,99239.64
2019-01-28T04:03:08.238Z,99245.31
2019-01-28T04:07:16.252Z,99243.30
2019-01-28T04:11:24.240Z,99241.91
2019-01-28T04:15:32.621Z,99245.43
2019-01-28T04:19:41.079Z,99243.30
2019-01-28T04:23:48.570Z,99245.43
2019-01-28T04:27:56.687Z,99245.33
2019-01-28T04:32:06.521Z,99244.63
2019-01-28T04:36:14.514Z,99243.20
2019-01-28T04:40:22.420Z,99240.45
2019-01-28T04:44:30.333Z,99244.87
2019-01-28T04:48:38.352Z,99245.96
2019-01-28T04:52:46.612Z,99246.70
2019-01-28T04:56:54.298Z,99243.59
2019-01-28T05:01:02.431Z,99241.08
2019-01-28T05:05:10.715Z,99241.94
2019-01-28T05:09:18.518Z,99236.55
2019-01-28T05:13:26.977Z,99236.95
2019-01-28T05:17:34.890Z,99237.88
2019-01-28T05:21:42.848Z,99238.03
2019-01-28T05:25:50.863Z,99239.98
2019-01-28T05:29:59.470Z,99233.27
2019-01-28T05:34:07.275Z,99227.27
2019-01-28T05:38:15.290Z,99224.58
2019-01-28T05:42:23.326Z,99218.72
2019-01-28T05:46:31.170Z,99221.31
2019-01-28T05:50:39.224Z,99221.66
2019-01-28T05:54:47.633Z,99228.82
2019-01-28T05:58:55.548Z,99229.73
2019-01-28T06:03:03.822Z,99239.30
2019-01-28T06:07:11.322Z,99230.16
2019-01-28T06:11:20.160Z,99231.09
2019-01-28T06:15:27.890Z,99236.02
2019-01-28T06:19:35.710Z,99230.98
2019-01-28T06:23:43.437Z,99226.23
2019-01-28T06:27:51.469Z,99237.98
2019-01-28T06:31:59.071Z,99229.91
2019-01-28T06:36:06.967Z,99227.02
2019-01-28T06:40:17.149Z,99224.47
2019-01-28T06:44:25.194Z,99231.77
2019-01-28T06:48:33.103Z,99228.34
2019-01-28T06:52:40.845Z,99236.70
2019-01-28T06:56:48.918Z,99231.34
2019-01-28T07:00:57.252Z,99232.16
2019-01-28T07:05:05.957Z,99229.66
2019-01-28T07:09:13.566Z,99229.94
2019-01-28T07:13:21.772Z,99224.50
2019-01-28T07:17:29.798Z,99221.00
2019-01-28T07:21:37.884Z,99215.67
2019-01-28T07:25:45.886Z,99213.11
2019-01-28T07:29:54.283Z,99215.20
2019-01-28T07:34:02.316Z,99213.97
2019-01-28T07:38:10.358Z,99207.80
2019-01-28T07:42:18.559Z,99194.66
2019-01-28T07:46:26.200Z,99193.22
2019-01-28T07:50:34.341Z,99188.77
2019-01-28T07:54:42.375Z,99199.47
2019-01-28T07:58:50.126Z,99203.73
2019-01-28T08:02:58.056Z,99200.52
2019-01-28T08:07:06.232Z,99189.06
2019-01-28T08:11:14.686Z,99188.74
2019-01-28T08:15:23.702Z,99181.52
2019-01-28T08:19:31.395Z,99186.24
2019-01-28T08:23:39.294Z,99167.91
2019-01-28T08:27:47.268Z,99173.60
2019-01-28T08:31:54.880Z,99178.38
2019-01-28T08:36:02.906Z,99173.36
2019-01-28T08:40:11.108Z,99177.02
2019-01-28T08:44:18.911Z,99186.28
2019-01-28T08:48:27.166Z,99170.06
2019-01-28T08:52:35.221Z,99173.44
2019-01-28T08:56:42.956Z,99162.25
2019-01-28T09:00:51.010Z,99150.32
2019-01-28T09:04:58.693Z,99154.69
2019-01-28T09:09:09.967Z,99155.33
2019-01-28T09:13:18.340Z,99152.05
2019-01-28T09:17:26.085Z,99141.32
2019-01-28T09:21:34.535Z,99149.35
2019-01-28T09:25:42.870Z,99139.55
2019-01-28T09:29:50.880Z,99146.64
2019-01-28T09:33:58.905Z,99131.29
2019-01-28T09:38:07.503Z,99130.61
2019-01-28T09:42:15.702Z,99130.89
2019-01-28T09:46:23.888Z,99128.25
2019-01-28T09:50:31.814Z,99125.20
2019-01-28T09:54:39.833Z,99124.52
2019-01-28T09:58:47.862Z,99119.03
2019-01-28T10:02:55.779Z,99118.38
2019-01-28T10:07:04.591Z,99090.02
2019-01-28T10:11:12.306Z,99095.48
2019-01-28T10:15:20.855Z,99097.90
2019-01-28T10:19:28.684Z,99099.16
2019-01-28T10:23:36.723Z,99102.16
2019-01-28T10:27:44.546Z,99100.04
2019-01-28T10:31:52.306Z,99095.92
2019-01-28T10:36:00.427Z,99090.62
2019-01-28T10:40:10.290Z,99085.86
2019-01-28T10:44:18.003Z,99092.52
2019-01-28T10:48:25.821Z,99081.85
2019-01-28T10:52:33.932Z,99081.05
2019-01-28T10:56:41.886Z,99084.06
2019-01-28T11:00:51.305Z,99067.55
2019-01-28T11:04:59.006Z,99065.09
2019-01-28T11:09:09.026Z,99061.39
2019-01-28T11:13:16.927Z,99061.03
2019-01-28T11:17:24.715Z,99042.46
2019-01-28T11:21:32.273Z,99038.19
2019-01-28T11:25:40.603Z,99028.28
2019-01-28T11:29:49.531Z,99018.26
2019-01-28T11:33:57.433Z,99015.13
2019-01-28T11:38:05.805Z,99018.59
2019-01-28T11:42:14.509Z,99011.23
2019-01-28T11:46:22.439Z,99002.72
2019-01-28T11:50:30.563Z,99008.58
2019-01-28T11:54:38.175Z,98989.93
2019-01-28T11:58:46.215Z,99000.42
2019-01-28T12:02:54.286Z,98992.56
2019-01-28T12:07:02.711Z,98989.76
2019-01-28T12:11:10.919Z,98982.03
2019-01-28T12:15:19.348Z,98983.94
2019-01-28T12:19:27.185Z,98983.25
2019-01-28T12:23:35.003Z,98974.56
2019-01-28T12:27:43.807Z,98971.42
2019-01-28T12:31:51.639Z,98979.62
2019-01-28T12:36:00.017Z,98973.17
2019-01-28T12:40:08.665Z,98970.88
2019-01-28T12:44:16.580Z,98963.52
2019-01-28T12:48:24.628Z,98960.03
2019-01-28T12:52:32.788Z,98958.19
2019-01-28T12:56:40.993Z,98962.68
2019-01-28T13:00:55.361Z,98950.52
2019-01-28T13:05:02.826Z,98952.76
2019-01-28T13:09:11.548Z,98960.22
2019-01-28T13:13:19.555Z,98946.47
2019-01-28T13:17:27.483Z,98951.73
2019-01-28T13:21:35.597Z,98954.80
2019-01-28T13:25:43.613Z,98951.43
2019-01-28T13:29:51.610Z,98951.30
2019-01-28T13:33:59.644Z,98954.70
2019-01-28T13:38:07.799Z,98943.08
2019-01-28T13:42:15.829Z,98949.70
2019-01-28T13:46:23.456Z,98949.03
2019-01-28T13:50:31.152Z,98943.35
2019-01-28T13:54:39.489Z,98946.38
2019-01-28T13:58:47.527Z,98943.33
2019-01-28T14:02:58.211Z,98953.12
2019-01-28T14:07:08.004Z,98946.12
2019-01-28T14:11:16.418Z,98938.97
2019-01-28T14:15:29.494Z,98947.58
2019-01-28T14:19:37.066Z,98949.34
2019-01-28T14:23:45.097Z,98958.42
2019-01-28T14:27:53.477Z,98950.26
2019-01-28T14:32:01.122Z,98941.22
2019-01-28T14:36:08.959Z,98944.84
2019-01-28T14:40:19.010Z,98946.28
2019-01-28T14:44:26.522Z,98951.19
2019-01-28T14:48:34.285Z,98949.47
2019-01-28T14:52:42.312Z,98943.76
2019-01-28T14:56:49.942Z,98948.80
2019-01-28T15:00:57.797Z,98949.98
2019-01-28T15:05:06.679Z,98947.28
2019-01-28T15:09:15.187Z,98954.59
2019-01-28T15:13:23.068Z,98955.44
2019-01-28T15:17:31.274Z,98950.84
2019-01-28T15:21:39.308Z,98950.18
2019-01-28T15:25:47.411Z,98947.63
2019-01-28T15:29:55.156Z,98958.98
2019-01-28T15:34:03.241Z,98966.13
2019-01-28T15:38:11.562Z,98972.69
2019-01-28T15:42:19.302Z,98970.22
2019-01-28T15:46:26.917Z,98970.38
2019-01-28T15:50:35.260Z,98972.03
2019-01-28T15:54:43.759Z,98974.39
2019-01-28T15:58:51.823Z,98964.30
2019-01-28T16:03:00.535Z,98965.70
2019-01-28T16:07:08.067Z,98958.97
2019-01-28T16:11:15.915Z,98959.94
2019-01-28T16:15:30.108Z,98967.84
2019-01-28T16:19:37.639Z,98967.69
2019-01-28T16:23:45.480Z,98960.20
2019-01-28T16:27:53.515Z,98977.13
2019-01-28T16:32:02.943Z,98983.42
2019-01-28T16:36:11.086Z,98976.25
2019-01-28T16:40:20.558Z,98970.64
2019-01-28T16:44:28.134Z,98965.95
2019-01-28T16:48:36.153Z,98962.78
2019-01-28T16:52:44.188Z,98962.83
2019-01-28T16:56:52.251Z,98964.11
2019-01-28T17:00:59.803Z,98959.59
2019-01-28T17:05:08.859Z,98965.69
2019-01-28T17:09:16.507Z,98964.70
2019-01-28T17:13:24.622Z,98965.11
2019-01-28T17:17:32.685Z,98965.91
2019-01-28T17:21:42.119Z,98969.88
2019-01-28T17:25:50.796Z,98975.09
2019-01-28T17:30:00.268Z,98978.78
2019-01-28T17:34:08.121Z,98975.23
2019-01-28T17:38:16.273Z,98960.62
2019-01-28T17:42:24.317Z,98956.20
2019-01-28T17:46:32.056Z,98951.97
2019-01-28T17:50:43.782Z,98947.48
2019-01-28T17:54:49.922Z,98960.81
2019-01-28T17:58:58.580Z,98956.72
2019-01-28T18:03:07.700Z,98945.61
2019-01-28T18:07:16.046Z,98942.15
2019-01-28T18:11:24.263Z,98950.62
2019-01-28T18:15:32.400Z,98950.13
2019-01-28T18:19:40.049Z,98940.20
2019-01-28T18:23:51.003Z,98933.23
2019-01-28T18:27:59.045Z,98937.41
2019-01-28T18:32:06.995Z,98934.92
2019-01-28T18:36:16.444Z,98934.41
2019-01-28T18:40:25.485Z,98931.55
2019-01-28T18:44:33.253Z,98927.22
2019-01-28T18:48:41.107Z,98931.25
2019-01-28T18:52:50.925Z,98937.75
2019-01-28T18:57:01.834Z,98934.23
2019-01-28T19:01:12.192Z,98927.41
2019-01-28T19:05:32.035Z,98921.41
2019-01-28T19:10:02.023Z,98915.63
2019-01-28T19:14:27.516Z,98925.81
2019-01-28T19:18:48.047Z,98935.30
2019-01-28T19:22:56.526Z,98923.64
2019-01-28T19:27:04.878Z,98927.77
2019-01-28T19:31:14.957Z,98939.88
2019-01-28T19:35:23.120Z,98946.15
2019-01-28T19:39:31.225Z,98958.09
2019-01-28T19:43:41.219Z,98955.11
2019-01-28T19:47:49.547Z,98949.52
2019-01-28T19:51:57.617Z,98939.88
2019-01-28T19:56:05.803Z,98935.84
2019-01-28T20:00:25.183Z,98930.23
2019-01-28T20:04:34.793Z,98926.09
2019-01-28T20:08:43.196Z,98942.55
2019-01-28T20:12:51.257Z,98939.72
2019-01-28T20:17:01.328Z,98947.22
2019-01-28T20:21:11.875Z,98948.92
2019-01-28T20:25:20.187Z,98957.61
2019-01-28T20:29:27.857Z,98949.95
2019-01-28T20:33:36.344Z,98961.77
2019-01-28T20:37:44.410Z,98953.48
2019-01-28T20:41:52.561Z,98951.30
2019-01-28T20:46:00.438Z,98946.97
2019-01-28T20:50:11.411Z,98943.14
2019-01-28T20:54:18.998Z,98943.04
2019-01-28T20:58:26.940Z,98938.52
2019-01-28T21:02:35.018Z,98942.33
2019-01-28T21:06:43.351Z,98948.63
2019-01-28T21:10:51.277Z,98953.27
2019-01-28T21:14:59.411Z,98955.44
2019-01-28T21:19:07.230Z,98957.19
2019-01-28T21:23:15.167Z,98961.95
2019-01-28T21:27:24.422Z,98959.61
2019-01-28T21:31:48.899Z,98958.77
2019-01-28T21:36:14.577Z,98965.91
2019-01-28T21:40:22.312Z,98971.52
2019-01-28T21:44:30.428Z,98972.20
2019-01-28T21:48:38.170Z,98969.52
2019-01-28T21:52:45.810Z,98968.34
2019-01-28T21:56:53.732Z,98972.17
2019-01-28T22:01:01.458Z,98975.75
2019-01-28T22:05:10.790Z,98970.42
2019-01-28T22:09:18.401Z,98968.69
2019-01-28T22:13:26.320Z,98970.86
2019-01-28T22:17:34.289Z,98970.05
2019-01-28T22:21:42.442Z,98979.00
2019-01-28T22:25:50.945Z,98974.66
2019-01-28T22:29:58.982Z,98982.09
2019-01-28T22:34:07.035Z,98973.98
2019-01-28T22:38:15.651Z,98985.26
2019-01-28T22:42:23.350Z,98983.53
2019-01-28T22:46:31.540Z,98979.32
2019-01-28T22:50:39.923Z,98975.97
2019-01-28T22:54:47.918Z,98982.20
2019-01-28T22:58:56.022Z,98970.27
2019-01-28T23:03:04.418Z,98964.43
2019-01-28T23:07:12.807Z,98965.06
2019-01-28T23:11:20.633Z,98970.07
2019-01-28T23:15:28.655Z,98970.41
2019-01-28T23:19:36.274Z,98966.00
2019-01-28T23:23:44.186Z,98968.80
2019-01-28T23:27:53.460Z,98966.30
2019-01-28T23:32:02.074Z,98959.58
2019-01-28T23:36:09.907Z,98957.08
2019-01-28T23:40:17.923Z,98957.43
2019-01-28T23:44:25.953Z,98959.42
2019-01-28T23:48:33.979Z,98959.30
2019-01-28T23:52:42.118Z,98968.12
2019-01-28T23:56:50.122Z,98974.63
